KALW

Walla Walla Regional Airport

Walla Walla, Washington, USA
KALW 231140Z 2312/2412 10005KT P6SM SKC FM231500 20005KT P6SM SKC FM232000 02006KT P6SM SKC FM240600 11007KT P6SM SKC
Issued Valid From Valid To
Jul-23 @ 11:40 UTC
(2 hours ago)
Jul-23 @ 12:00 UTC
(2 hours ago)
Jul-24 @ 12:00 UTC
(in 22 hours)
Jul-23 @ 12:00 to Jul-23 @ 15:00
KALW 231140Z 2312/2412 10005KT P6SM SKC
Wind Visibility Clouds
100° at 5 knots Greater than 6 miles
  • Clear skies
From Jul-23 @ 15:00 to Jul-23 @ 20:00
FM231500 20005KT P6SM SKC
Wind Visibility Clouds
200° at 5 knots Greater than 6 miles
  • Clear skies
From Jul-23 @ 20:00 to Jul-24 @ 06:00
FM232000 02006KT P6SM SKC
Wind Visibility Clouds
20° at 6 knots Greater than 6 miles
  • Clear skies
From Jul-24 @ 06:00 to Jul-24 @ 12:00
FM240600 11007KT P6SM SKC
Wind Visibility Clouds
110° at 7 knots Greater than 6 miles
  • Clear skies
KALW 231140Z 2312/2412 10005KT P6SM SKC FM231500 20005KT P6SM SKC FM232000 02006KT P6SM SKC FM240600 11007KT P6SM SKC
Issued Jul-23 @ 11:40 UTC
(2 hours ago)
Valid From Jul-23 @ 12:00 UTC
(2 hours ago)
Valid To Jul-24 @ 12:00 UTC
(in 22 hours)
Jul-23 @ 12:00 - Jul-23 @ 15:00
Wind Visibility
100° at 5 knots Greater than 6 miles
Clouds
  • Clear skies
From Jul-23 @ 15:00 - Jul-23 @ 20:00
Wind Visibility
200° at 5 knots Greater than 6 miles
Clouds
  • Clear skies
From Jul-23 @ 20:00 - Jul-24 @ 06:00
Wind Visibility
20° at 6 knots Greater than 6 miles
Clouds
  • Clear skies
From Jul-24 @ 06:00 - Jul-24 @ 12:00
Wind Visibility
110° at 7 knots Greater than 6 miles
Clouds
  • Clear skies